Northeast Iowa Regional Airport
KCCY : now visible

Airfield :











YOU CAN JOIN US ON...

 
LOGIN :

Register | Disclaimer

   EN    FR    IT 

 









Legend :    VFR   Marginal VFR   IFR   Intensive IFR   Very Intensive IFR
Visi :
Ceiling :
>= 8 km
>= 3000ft
5 to 8 km
1000 to 3000 ft
1500m to 5 km
500 to 1000 ft
800 to 1500m
200 to 500 ft
< 800m
< 200 ft
Symbols :   Thunderstorms  Fog  Heavy snow  Heavy precipitations  Wind > 20 kt






- Airport Elevation : 1125 ft


KCCY - Northeast Iowa Regional

CURRENT METAR :
  • 021715Z AUTO 26010KT 10SM CLR 27/16 A3006 RMK AO2

EXPIRED METARs :
  • 021655Z AUTO 25010G15KT 10SM CLR 26/17 A3007 RMK AO2
  • 021635Z AUTO 24012KT 10SM CLR 26/17 A3007 RMK AO2
  • 021615Z AUTO 23007G13KT 10SM CLR 26/17 A3007 RMK AO2
  • 021555Z AUTO 25009G15KT 10SM CLR 25/17 A3007 RMK AO2
  • 021535Z AUTO 24005G12KT 10SM CLR 25/18 A3007 RMK AO2
  • 021515Z AUTO 26008KT 10SM CLR 25/18 A3007 RMK AO2
  • 021455Z AUTO 27011KT 10SM CLR 24/18 A3007 RMK AO2
  • 021435Z AUTO 26009KT 10SM CLR 24/18 A3007 RMK AO2
  • 020315Z AUTO 23003KT 10SM CLR 20/14 A3002 RMK AO2

TAF N/A
KZMP FIR / North America



MET'MAP, your aeronautical weather chart ! - Copyright ORBIFLY December 2007 - Disclaimer

ORBIFLY MET'MAP TEAM :

Programming & Development : Alexandra Zaïnal
Original concept : Baudouin d'Aumeries
Technical & hardware support : Manuel Goepfert
Assistance : Marc-Olivier Méhu




SOURCES & CREDITS :

   NOAA       Earth
Advisory